sensor_id;sensor_type;location;lat;lon;timestamp;P1;durP1;ratioP1;P2;durP2;ratioP2
26040;SDS011;13816;53.628;9.950;2023-03-21T00:01:12;22.63;;;20.10;;
26040;SDS011;13816;53.628;9.950;2023-03-21T00:03:39;23.17;;;18.57;;
26040;SDS011;13816;53.628;9.950;2023-03-21T00:06:08;22.50;;;19.40;;
26040;SDS011;13816;53.628;9.950;2023-03-21T00:08:35;21.10;;;18.73;;
26040;SDS011;13816;53.628;9.950;2023-03-21T00:11:02;21.23;;;18.83;;
26040;SDS011;13816;53.628;9.950;2023-03-21T00:13:29;23.23;;;20.73;;
26040;SDS011;13816;53.628;9.950;2023-03-21T00:16:23;23.73;;;20.07;;
26040;SDS011;13816;53.628;9.950;2023-03-21T00:18:52;22.40;;;19.73;;
26040;SDS011;13816;53.628;9.950;2023-03-21T00:21:19;23.87;;;20.83;;
26040;SDS011;13816;53.628;9.950;2023-03-21T00:23:45;24.93;;;19.60;;
26040;SDS011;13816;53.628;9.950;2023-03-21T00:26:12;21.63;;;19.33;;
26040;SDS011;13816;53.628;9.950;2023-03-21T00:28:39;23.60;;;20.60;;
26040;SDS011;13816;53.628;9.950;2023-03-21T00:31:06;28.53;;;21.80;;
26040;SDS011;13816;53.628;9.950;2023-03-21T00:33:32;24.20;;;20.37;;
26040;SDS011;13816;53.628;9.950;2023-03-21T00:35:59;23.80;;;19.90;;
26040;SDS011;13816;53.628;9.950;2023-03-21T00:38:25;26.40;;;22.67;;
26040;SDS011;13816;53.628;9.950;2023-03-21T00:40:52;27.33;;;21.87;;
26040;SDS011;13816;53.628;9.950;2023-03-21T00:43:18;28.83;;;23.57;;
26040;SDS011;13816;53.628;9.950;2023-03-21T00:45:49;26.43;;;20.90;;
26040;SDS011;13816;53.628;9.950;2023-03-21T00:48:15;27.47;;;23.03;;
26040;SDS011;13816;53.628;9.950;2023-03-21T00:50:43;28.00;;;21.97;;
26040;SDS011;13816;53.628;9.950;2023-03-21T00:53:10;34.17;;;24.43;;
26040;SDS011;13816;53.628;9.950;2023-03-21T00:55:37;26.63;;;22.83;;
26040;SDS011;13816;53.628;9.950;2023-03-21T00:58:03;31.20;;;24.13;;
26040;SDS011;13816;53.628;9.950;2023-03-21T01:00:30;30.57;;;24.43;;
26040;SDS011;13816;53.628;9.950;2023-03-21T01:02:57;32.63;;;26.53;;
26040;SDS011;13816;53.628;9.950;2023-03-21T01:05:29;33.80;;;26.20;;
26040;SDS011;13816;53.628;9.950;2023-03-21T01:08:15;32.00;;;25.00;;
26040;SDS011;13816;53.628;9.950;2023-03-21T01:10:43;29.70;;;24.43;;
26040;SDS011;13816;53.628;9.950;2023-03-21T01:13:10;32.33;;;26.13;;
26040;SDS011;13816;53.628;9.950;2023-03-21T01:15:44;39.10;;;28.47;;
26040;SDS011;13816;53.628;9.950;2023-03-21T01:18:10;37.27;;;27.47;;
26040;SDS011;13816;53.628;9.950;2023-03-21T01:20:38;34.97;;;27.80;;
26040;SDS011;13816;53.628;9.950;2023-03-21T01:23:05;32.47;;;26.27;;
26040;SDS011;13816;53.628;9.950;2023-03-21T01:25:32;33.77;;;26.10;;
26040;SDS011;13816;53.628;9.950;2023-03-21T01:27:58;33.47;;;27.50;;
26040;SDS011;13816;53.628;9.950;2023-03-21T01:30:24;38.27;;;29.40;;
26040;SDS011;13816;53.628;9.950;2023-03-21T01:32:51;33.70;;;28.73;;
26040;SDS011;13816;53.628;9.950;2023-03-21T01:35:17;31.97;;;26.33;;
26040;SDS011;13816;53.628;9.950;2023-03-21T01:37:43;36.60;;;27.77;;
26040;SDS011;13816;53.628;9.950;2023-03-21T01:40:10;38.27;;;29.00;;
26040;SDS011;13816;53.628;9.950;2023-03-21T01:42:40;35.83;;;27.73;;
26040;SDS011;13816;53.628;9.950;2023-03-21T01:46:04;39.00;;;29.30;;
26040;SDS011;13816;53.628;9.950;2023-03-21T01:47:53;36.03;;;27.53;;
26040;SDS011;13816;53.628;9.950;2023-03-21T01:50:21;41.90;;;30.30;;
26040;SDS011;13816;53.628;9.950;2023-03-21T01:53:19;49.33;;;31.40;;
26040;SDS011;13816;53.628;9.950;2023-03-21T01:55:46;41.60;;;29.80;;
26040;SDS011;13816;53.628;9.950;2023-03-21T01:58:25;40.63;;;30.93;;
26040;SDS011;13816;53.628;9.950;2023-03-21T02:01:06;42.60;;;30.83;;
26040;SDS011;13816;53.628;9.950;2023-03-21T02:03:41;41.30;;;30.60;;
26040;SDS011;13816;53.628;9.950;2023-03-21T02:06:23;44.93;;;32.37;;
26040;SDS011;13816;53.628;9.950;2023-03-21T02:08:58;45.63;;;32.27;;
26040;SDS011;13816;53.628;9.950;2023-03-21T02:11:26;44.60;;;31.77;;
26040;SDS011;13816;53.628;9.950;2023-03-21T02:13:54;41.27;;;31.57;;
26040;SDS011;13816;53.628;9.950;2023-03-21T02:16:36;40.80;;;30.43;;
26040;SDS011;13816;53.628;9.950;2023-03-21T02:21:39;47.50;;;32.60;;
26040;SDS011;13816;53.628;9.950;2023-03-21T02:29:41;44.60;;;33.03;;
26040;SDS011;13816;53.628;9.950;2023-03-21T02:37:55;44.90;;;33.00;;
26040;SDS011;13816;53.628;9.950;2023-03-21T02:40:24;44.47;;;32.50;;
26040;SDS011;13816;53.628;9.950;2023-03-21T02:45:25;42.90;;;32.40;;
26040;SDS011;13816;53.628;9.950;2023-03-21T02:48:17;43.83;;;33.73;;
26040;SDS011;13816;53.628;9.950;2023-03-21T02:50:45;40.90;;;30.83;;
26040;SDS011;13816;53.628;9.950;2023-03-21T02:53:17;44.57;;;33.40;;
26040;SDS011;13816;53.628;9.950;2023-03-21T02:55:44;47.00;;;34.67;;
26040;SDS011;13816;53.628;9.950;2023-03-21T02:58:14;47.20;;;34.80;;
26040;SDS011;13816;53.628;9.950;2023-03-21T03:00:49;41.27;;;33.03;;
26040;SDS011;13816;53.628;9.950;2023-03-21T03:03:27;44.47;;;32.80;;
26040;SDS011;13816;53.628;9.950;2023-03-21T03:05:54;44.87;;;33.70;;
26040;SDS011;13816;53.628;9.950;2023-03-21T03:13:39;51.47;;;36.07;;
26040;SDS011;13816;53.628;9.950;2023-03-21T03:18:47;47.53;;;36.00;;
26040;SDS011;13816;53.628;9.950;2023-03-21T03:28:40;48.47;;;35.87;;
26040;SDS011;13816;53.628;9.950;2023-03-21T03:31:13;47.53;;;34.50;;
26040;SDS011;13816;53.628;9.950;2023-03-21T03:33:48;49.47;;;35.30;;
26040;SDS011;13816;53.628;9.950;2023-03-21T03:36:19;49.57;;;34.90;;
26040;SDS011;13816;53.628;9.950;2023-03-21T03:38:47;51.87;;;36.80;;
26040;SDS011;13816;53.628;9.950;2023-03-21T03:41:20;49.40;;;34.80;;
26040;SDS011;13816;53.628;9.950;2023-03-21T03:43:54;51.50;;;36.17;;
26040;SDS011;13816;53.628;9.950;2023-03-21T03:49:13;46.27;;;34.90;;
26040;SDS011;13816;53.628;9.950;2023-03-21T03:51:42;49.30;;;32.80;;
26040;SDS011;13816;53.628;9.950;2023-03-21T03:54:40;49.37;;;33.43;;
26040;SDS011;13816;53.628;9.950;2023-03-21T03:57:07;48.37;;;35.87;;
26040;SDS011;13816;53.628;9.950;2023-03-21T03:59:36;52.00;;;36.43;;
26040;SDS011;13816;53.628;9.950;2023-03-21T04:02:25;49.73;;;33.97;;
26040;SDS011;13816;53.628;9.950;2023-03-21T04:04:52;44.00;;;32.60;;
26040;SDS011;13816;53.628;9.950;2023-03-21T04:07:22;56.57;;;35.40;;
26040;SDS011;13816;53.628;9.950;2023-03-21T04:09:51;48.20;;;34.77;;
26040;SDS011;13816;53.628;9.950;2023-03-21T04:12:19;46.80;;;34.30;;
26040;SDS011;13816;53.628;9.950;2023-03-21T04:15:05;52.63;;;35.20;;
26040;SDS011;13816;53.628;9.950;2023-03-21T04:17:32;41.00;;;34.20;;
26040;SDS011;13816;53.628;9.950;2023-03-21T04:19:58;41.47;;;32.30;;
26040;SDS011;13816;53.628;9.950;2023-03-21T04:22:24;53.20;;;35.37;;
26040;SDS011;13816;53.628;9.950;2023-03-21T04:24:51;49.40;;;34.33;;
26040;SDS011;13816;53.628;9.950;2023-03-21T04:27:18;50.47;;;37.17;;
26040;SDS011;13816;53.628;9.950;2023-03-21T04:30:07;49.23;;;35.13;;
26040;SDS011;13816;53.628;9.950;2023-03-21T04:32:52;51.70;;;35.93;;
26040;SDS011;13816;53.628;9.950;2023-03-21T04:35:21;49.90;;;33.87;;
26040;SDS011;13816;53.628;9.950;2023-03-21T04:37:48;57.43;;;35.37;;
26040;SDS011;13816;53.628;9.950;2023-03-21T04:40:15;44.60;;;33.90;;
26040;SDS011;13816;53.628;9.950;2023-03-21T04:42:45;49.00;;;35.40;;
26040;SDS011;13816;53.628;9.950;2023-03-21T04:45:12;49.27;;;34.97;;
26040;SDS011;13816;53.628;9.950;2023-03-21T04:47:38;46.60;;;33.13;;
26040;SDS011;13816;53.628;9.950;2023-03-21T04:50:06;52.53;;;35.47;;
26040;SDS011;13816;53.628;9.950;2023-03-21T04:52:32;52.50;;;35.27;;
26040;SDS011;13816;53.628;9.950;2023-03-21T04:54:59;48.33;;;33.97;;
26040;SDS011;13816;53.628;9.950;2023-03-21T04:57:26;55.00;;;36.83;;
26040;SDS011;13816;53.628;9.950;2023-03-21T04:59:52;51.37;;;36.40;;
26040;SDS011;13816;53.628;9.950;2023-03-21T05:02:20;52.30;;;37.03;;
26040;SDS011;13816;53.628;9.950;2023-03-21T05:04:46;50.30;;;35.60;;
26040;SDS011;13816;53.628;9.950;2023-03-21T05:07:12;53.27;;;37.10;;
26040;SDS011;13816;53.628;9.950;2023-03-21T05:09:39;50.87;;;36.67;;
26040;SDS011;13816;53.628;9.950;2023-03-21T05:12:06;51.53;;;35.93;;
26040;SDS011;13816;53.628;9.950;2023-03-21T05:14:33;46.47;;;35.87;;
26040;SDS011;13816;53.628;9.950;2023-03-21T05:17:00;58.27;;;38.80;;
26040;SDS011;13816;53.628;9.950;2023-03-21T05:19:30;53.40;;;38.47;;
26040;SDS011;13816;53.628;9.950;2023-03-21T05:22:04;52.20;;;36.80;;
26040;SDS011;13816;53.628;9.950;2023-03-21T05:24:31;51.73;;;35.97;;
26040;SDS011;13816;53.628;9.950;2023-03-21T05:26:58;57.03;;;37.43;;
26040;SDS011;13816;53.628;9.950;2023-03-21T05:29:34;56.27;;;38.97;;
26040;SDS011;13816;53.628;9.950;2023-03-21T05:32:04;58.97;;;39.60;;
26040;SDS011;13816;53.628;9.950;2023-03-21T05:34:30;61.03;;;38.30;;
26040;SDS011;13816;53.628;9.950;2023-03-21T05:36:57;54.30;;;38.40;;
26040;SDS011;13816;53.628;9.950;2023-03-21T05:39:33;57.10;;;38.20;;
26040;SDS011;13816;53.628;9.950;2023-03-21T05:42:04;47.43;;;36.67;;
26040;SDS011;13816;53.628;9.950;2023-03-21T05:44:33;53.40;;;36.37;;
26040;SDS011;13816;53.628;9.950;2023-03-21T05:47:02;47.77;;;35.90;;
26040;SDS011;13816;53.628;9.950;2023-03-21T05:49:37;45.90;;;34.47;;
26040;SDS011;13816;53.628;9.950;2023-03-21T05:52:04;41.50;;;32.10;;
26040;SDS011;13816;53.628;9.950;2023-03-21T05:54:30;48.63;;;33.90;;
26040;SDS011;13816;53.628;9.950;2023-03-21T05:56:57;46.53;;;33.07;;
26040;SDS011;13816;53.628;9.950;2023-03-21T05:59:45;45.93;;;35.23;;
26040;SDS011;13816;53.628;9.950;2023-03-21T06:02:15;42.00;;;32.57;;
26040;SDS011;13816;53.628;9.950;2023-03-21T06:04:42;43.87;;;33.40;;
26040;SDS011;13816;53.628;9.950;2023-03-21T06:07:08;46.33;;;34.63;;
26040;SDS011;13816;53.628;9.950;2023-03-21T06:09:37;50.80;;;36.47;;
26040;SDS011;13816;53.628;9.950;2023-03-21T06:12:03;47.47;;;36.90;;
26040;SDS011;13816;53.628;9.950;2023-03-21T06:14:47;52.67;;;38.17;;
26040;SDS011;13816;53.628;9.950;2023-03-21T06:17:26;65.70;;;41.67;;
26040;SDS011;13816;53.628;9.950;2023-03-21T06:19:57;52.80;;;38.70;;
26040;SDS011;13816;53.628;9.950;2023-03-21T06:22:31;50.47;;;38.27;;
26040;SDS011;13816;53.628;9.950;2023-03-21T06:25:01;45.53;;;36.93;;
26040;SDS011;13816;53.628;9.950;2023-03-21T06:27:28;56.50;;;38.83;;
26040;SDS011;13816;53.628;9.950;2023-03-21T06:29:58;47.40;;;36.80;;
26040;SDS011;13816;53.628;9.950;2023-03-21T06:32:30;55.07;;;37.90;;
26040;SDS011;13816;53.628;9.950;2023-03-21T06:35:05;53.40;;;39.80;;
26040;SDS011;13816;53.628;9.950;2023-03-21T06:37:32;52.40;;;38.47;;
26040;SDS011;13816;53.628;9.950;2023-03-21T06:39:59;49.10;;;37.93;;
26040;SDS011;13816;53.628;9.950;2023-03-21T06:42:25;50.03;;;37.87;;
26040;SDS011;13816;53.628;9.950;2023-03-21T06:44:59;52.17;;;38.83;;
26040;SDS011;13816;53.628;9.950;2023-03-21T06:47:26;48.47;;;36.60;;
26040;SDS011;13816;53.628;9.950;2023-03-21T06:49:52;54.17;;;39.83;;
26040;SDS011;13816;53.628;9.950;2023-03-21T06:52:18;55.17;;;39.50;;
26040;SDS011;13816;53.628;9.950;2023-03-21T06:54:45;49.80;;;37.03;;
26040;SDS011;13816;53.628;9.950;2023-03-21T06:57:14;48.13;;;38.10;;
26040;SDS011;13816;53.628;9.950;2023-03-21T06:59:42;50.00;;;37.43;;
26040;SDS011;13816;53.628;9.950;2023-03-21T07:02:13;52.00;;;38.60;;
26040;SDS011;13816;53.628;9.950;2023-03-21T07:04:59;47.70;;;35.37;;
26040;SDS011;13816;53.628;9.950;2023-03-21T07:07:27;52.37;;;39.23;;
26040;SDS011;13816;53.628;9.950;2023-03-21T07:09:54;55.90;;;40.87;;
26040;SDS011;13816;53.628;9.950;2023-03-21T07:12:21;62.27;;;40.20;;
26040;SDS011;13816;53.628;9.950;2023-03-21T07:15:08;56.63;;;40.53;;
26040;SDS011;13816;53.628;9.950;2023-03-21T07:17:35;58.87;;;42.63;;
26040;SDS011;13816;53.628;9.950;2023-03-21T07:20:02;57.33;;;40.80;;
26040;SDS011;13816;53.628;9.950;2023-03-21T07:22:32;58.30;;;42.17;;
26040;SDS011;13816;53.628;9.950;2023-03-21T07:24:58;58.90;;;41.07;;
26040;SDS011;13816;53.628;9.950;2023-03-21T07:27:24;60.27;;;41.23;;
26040;SDS011;13816;53.628;9.950;2023-03-21T07:29:54;61.43;;;42.10;;
26040;SDS011;13816;53.628;9.950;2023-03-21T07:32:20;54.50;;;40.87;;
26040;SDS011;13816;53.628;9.950;2023-03-21T07:34:48;58.37;;;42.27;;
26040;SDS011;13816;53.628;9.950;2023-03-21T07:37:15;60.20;;;40.33;;
26040;SDS011;13816;53.628;9.950;2023-03-21T07:39:41;63.27;;;43.67;;
26040;SDS011;13816;53.628;9.950;2023-03-21T07:42:07;58.73;;;40.93;;
26040;SDS011;13816;53.628;9.950;2023-03-21T07:44:37;53.73;;;39.97;;
26040;SDS011;13816;53.628;9.950;2023-03-21T07:47:04;57.20;;;42.40;;
26040;SDS011;13816;53.628;9.950;2023-03-21T07:49:31;60.63;;;43.47;;
26040;SDS011;13816;53.628;9.950;2023-03-21T07:51:57;58.57;;;40.80;;
26040;SDS011;13816;53.628;9.950;2023-03-21T07:54:24;59.63;;;42.63;;
26040;SDS011;13816;53.628;9.950;2023-03-21T07:56:52;56.63;;;40.37;;
26040;SDS011;13816;53.628;9.950;2023-03-21T07:59:19;55.00;;;39.30;;
26040;SDS011;13816;53.628;9.950;2023-03-21T08:01:45;63.77;;;41.20;;
26040;SDS011;13816;53.628;9.950;2023-03-21T08:04:11;58.77;;;39.97;;
26040;SDS011;13816;53.628;9.950;2023-03-21T08:06:38;59.30;;;39.07;;
26040;SDS011;13816;53.628;9.950;2023-03-21T08:09:04;60.10;;;38.63;;
26040;SDS011;13816;53.628;9.950;2023-03-21T08:11:31;61.00;;;38.80;;
26040;SDS011;13816;53.628;9.950;2023-03-21T08:13:57;59.73;;;39.20;;
26040;SDS011;13816;53.628;9.950;2023-03-21T08:16:23;58.57;;;40.07;;
26040;SDS011;13816;53.628;9.950;2023-03-21T08:18:50;62.60;;;40.90;;
26040;SDS011;13816;53.628;9.950;2023-03-21T08:21:16;65.23;;;41.87;;
26040;SDS011;13816;53.628;9.950;2023-03-21T08:23:43;58.00;;;39.40;;
26040;SDS011;13816;53.628;9.950;2023-03-21T08:26:09;69.43;;;40.97;;
26040;SDS011;13816;53.628;9.950;2023-03-21T08:28:36;66.27;;;41.60;;
26040;SDS011;13816;53.628;9.950;2023-03-21T08:31:07;60.97;;;37.60;;
26040;SDS011;13816;53.628;9.950;2023-03-21T08:33:34;66.77;;;40.97;;
26040;SDS011;13816;53.628;9.950;2023-03-21T08:36:01;70.80;;;41.43;;
26040;SDS011;13816;53.628;9.950;2023-03-21T08:38:27;56.67;;;38.10;;
26040;SDS011;13816;53.628;9.950;2023-03-21T08:40:55;59.70;;;38.90;;
26040;SDS011;13816;53.628;9.950;2023-03-21T08:43:22;67.70;;;40.50;;
26040;SDS011;13816;53.628;9.950;2023-03-21T08:45:48;68.53;;;42.57;;
26040;SDS011;13816;53.628;9.950;2023-03-21T08:48:15;54.93;;;38.53;;
26040;SDS011;13816;53.628;9.950;2023-03-21T08:51:03;68.23;;;38.40;;
26040;SDS011;13816;53.628;9.950;2023-03-21T08:53:30;58.07;;;37.17;;
26040;SDS011;13816;53.628;9.950;2023-03-21T08:55:56;54.47;;;35.67;;
26040;SDS011;13816;53.628;9.950;2023-03-21T08:58:25;58.03;;;37.43;;
26040;SDS011;13816;53.628;9.950;2023-03-21T09:00:54;55.73;;;38.77;;
26040;SDS011;13816;53.628;9.950;2023-03-21T09:03:25;59.17;;;36.43;;
26040;SDS011;13816;53.628;9.950;2023-03-21T09:05:54;58.63;;;38.47;;
26040;SDS011;13816;53.628;9.950;2023-03-21T09:08:22;60.10;;;38.73;;
26040;SDS011;13816;53.628;9.950;2023-03-21T09:10:51;57.00;;;37.03;;
26040;SDS011;13816;53.628;9.950;2023-03-21T09:13:31;53.20;;;36.50;;
26040;SDS011;13816;53.628;9.950;2023-03-21T09:15:58;57.60;;;35.87;;
26040;SDS011;13816;53.628;9.950;2023-03-21T09:18:26;55.53;;;34.87;;
26040;SDS011;13816;53.628;9.950;2023-03-21T09:21:15;57.33;;;35.60;;
26040;SDS011;13816;53.628;9.950;2023-03-21T09:23:47;52.03;;;34.53;;
26040;SDS011;13816;53.628;9.950;2023-03-21T09:26:20;64.80;;;37.73;;
26040;SDS011;13816;53.628;9.950;2023-03-21T09:28:46;58.93;;;36.67;;
26040;SDS011;13816;53.628;9.950;2023-03-21T09:31:25;65.57;;;37.83;;
26040;SDS011;13816;53.628;9.950;2023-03-21T09:33:58;64.17;;;37.50;;
26040;SDS011;13816;53.628;9.950;2023-03-21T09:36:27;53.10;;;35.97;;
26040;SDS011;13816;53.628;9.950;2023-03-21T09:39:02;57.07;;;36.63;;
26040;SDS011;13816;53.628;9.950;2023-03-21T09:44:30;57.33;;;36.20;;
26040;SDS011;13816;53.628;9.950;2023-03-21T09:47:25;61.60;;;41.58;;
26040;SDS011;13816;53.628;9.950;2023-03-21T09:50:12;70.63;;;39.43;;
26040;SDS011;13816;53.628;9.950;2023-03-21T09:52:52;59.10;;;36.43;;
26040;SDS011;13816;53.628;9.950;2023-03-21T09:55:29;60.30;;;38.73;;
26040;SDS011;13816;53.628;9.950;2023-03-21T09:58:18;64.10;;;37.20;;
26040;SDS011;13816;53.628;9.950;2023-03-21T10:01:05;58.87;;;35.40;;
26040;SDS011;13816;53.628;9.950;2023-03-21T10:03:46;56.37;;;36.33;;
26040;SDS011;13816;53.628;9.950;2023-03-21T10:06:23;59.60;;;36.07;;
26040;SDS011;13816;53.628;9.950;2023-03-21T10:09:04;65.33;;;36.57;;
26040;SDS011;13816;53.628;9.950;2023-03-21T10:11:41;53.03;;;33.43;;
26040;SDS011;13816;53.628;9.950;2023-03-21T10:17:13;49.20;;;32.87;;
26040;SDS011;13816;53.628;9.950;2023-03-21T10:19:39;52.00;;;31.50;;
26040;SDS011;13816;53.628;9.950;2023-03-21T10:22:10;46.97;;;29.80;;
26040;SDS011;13816;53.628;9.950;2023-03-21T10:24:39;40.50;;;28.77;;
26040;SDS011;13816;53.628;9.950;2023-03-21T10:27:08;44.33;;;31.30;;
26040;SDS011;13816;53.628;9.950;2023-03-21T10:29:49;39.90;;;29.17;;
26040;SDS011;13816;53.628;9.950;2023-03-21T10:32:17;42.93;;;29.97;;
26040;SDS011;13816;53.628;9.950;2023-03-21T10:34:45;47.80;;;30.03;;
26040;SDS011;13816;53.628;9.950;2023-03-21T10:37:16;36.30;;;26.67;;
26040;SDS011;13816;53.628;9.950;2023-03-21T10:39:48;43.53;;;29.43;;
26040;SDS011;13816;53.628;9.950;2023-03-21T10:42:22;40.43;;;28.80;;
26040;SDS011;13816;53.628;9.950;2023-03-21T10:44:53;42.70;;;29.10;;
26040;SDS011;13816;53.628;9.950;2023-03-21T10:47:29;42.50;;;28.93;;
26040;SDS011;13816;53.628;9.950;2023-03-21T10:50:00;40.87;;;27.33;;
26040;SDS011;13816;53.628;9.950;2023-03-21T10:52:28;39.83;;;28.47;;
26040;SDS011;13816;53.628;9.950;2023-03-21T10:55:07;35.07;;;26.50;;
26040;SDS011;13816;53.628;9.950;2023-03-21T10:57:51;34.87;;;25.70;;
26040;SDS011;13816;53.628;9.950;2023-03-21T11:00:29;39.07;;;28.87;;
26040;SDS011;13816;53.628;9.950;2023-03-21T11:02:59;38.80;;;29.00;;
26040;SDS011;13816;53.628;9.950;2023-03-21T11:05:36;45.97;;;29.10;;
26040;SDS011;13816;53.628;9.950;2023-03-21T11:08:04;33.30;;;25.83;;
26040;SDS011;13816;53.628;9.950;2023-03-21T11:10:35;37.07;;;27.33;;
26040;SDS011;13816;53.628;9.950;2023-03-21T11:13:06;37.00;;;27.37;;
26040;SDS011;13816;53.628;9.950;2023-03-21T11:15:39;32.27;;;26.03;;
26040;SDS011;13816;53.628;9.950;2023-03-21T11:18:13;42.53;;;26.10;;
26040;SDS011;13816;53.628;9.950;2023-03-21T11:20:47;38.10;;;28.37;;
26040;SDS011;13816;53.628;9.950;2023-03-21T11:23:19;34.67;;;26.07;;
26040;SDS011;13816;53.628;9.950;2023-03-21T11:25:51;35.40;;;26.27;;
26040;SDS011;13816;53.628;9.950;2023-03-21T11:28:23;38.27;;;26.87;;
26040;SDS011;13816;53.628;9.950;2023-03-21T11:31:07;43.50;;;27.70;;
26040;SDS011;13816;53.628;9.950;2023-03-21T11:39:32;41.40;;;28.13;;
26040;SDS011;13816;53.628;9.950;2023-03-21T11:41:41;40.30;;;27.83;;
26040;SDS011;13816;53.628;9.950;2023-03-21T11:44:34;41.87;;;27.77;;
26040;SDS011;13816;53.628;9.950;2023-03-21T11:46:59;43.60;;;28.10;;
26040;SDS011;13816;53.628;9.950;2023-03-21T11:49:37;38.63;;;26.20;;
26040;SDS011;13816;53.628;9.950;2023-03-21T11:52:16;42.30;;;27.83;;
26040;SDS011;13816;53.628;9.950;2023-03-21T11:54:57;43.03;;;27.00;;
26040;SDS011;13816;53.628;9.950;2023-03-21T12:05:36;39.20;;;24.73;;
26040;SDS011;13816;53.628;9.950;2023-03-21T12:10:53;35.13;;;25.50;;
26040;SDS011;13816;53.628;9.950;2023-03-21T12:24:30;36.43;;;25.53;;
26040;SDS011;13816;53.628;9.950;2023-03-21T12:30:09;30.50;;;20.47;;
26040;SDS011;13816;53.628;9.950;2023-03-21T12:32:22;29.80;;;23.77;;
26040;SDS011;13816;53.628;9.950;2023-03-21T12:37:36;32.00;;;20.63;;
26040;SDS011;13816;53.628;9.950;2023-03-21T12:40:21;31.80;;;20.93;;
26040;SDS011;13816;53.628;9.950;2023-03-21T12:43:08;28.13;;;21.73;;
26040;SDS011;13816;53.628;9.950;2023-03-21T12:45:40;26.07;;;18.67;;
26040;SDS011;13816;53.628;9.950;2023-03-21T12:48:20;29.73;;;20.23;;
26040;SDS011;13816;53.628;9.950;2023-03-21T12:50:51;33.80;;;20.87;;
26040;SDS011;13816;53.628;9.950;2023-03-21T12:53:35;24.77;;;18.97;;
26040;SDS011;13816;53.628;9.950;2023-03-21T12:56:26;21.73;;;17.57;;
26040;SDS011;13816;53.628;9.950;2023-03-21T12:58:58;26.70;;;19.70;;
26040;SDS011;13816;53.628;9.950;2023-03-21T13:01:36;25.57;;;16.40;;
26040;SDS011;13816;53.628;9.950;2023-03-21T13:06:51;25.17;;;17.43;;
26040;SDS011;13816;53.628;9.950;2023-03-21T13:09:33;23.40;;;17.10;;
26040;SDS011;13816;53.628;9.950;2023-03-21T13:12:01;22.13;;;16.83;;
26040;SDS011;13816;53.628;9.950;2023-03-21T13:14:35;28.30;;;16.27;;
26040;SDS011;13816;53.628;9.950;2023-03-21T13:17:05;20.63;;;16.67;;
26040;SDS011;13816;53.628;9.950;2023-03-21T13:19:52;22.70;;;16.90;;
26040;SDS011;13816;53.628;9.950;2023-03-21T13:22:26;23.03;;;16.77;;
26040;SDS011;13816;53.628;9.950;2023-03-21T13:24:57;20.83;;;16.00;;
26040;SDS011;13816;53.628;9.950;2023-03-21T13:30:01;19.77;;;16.50;;
26040;SDS011;13816;53.628;9.950;2023-03-21T13:32:43;19.07;;;16.00;;
26040;SDS011;13816;53.628;9.950;2023-03-21T13:35:14;21.40;;;17.20;;
26040;SDS011;13816;53.628;9.950;2023-03-21T13:37:42;22.67;;;16.80;;
26040;SDS011;13816;53.628;9.950;2023-03-21T13:46:07;21.47;;;17.37;;
26040;SDS011;13816;53.628;9.950;2023-03-21T13:56:27;20.60;;;14.90;;
26040;SDS011;13816;53.628;9.950;2023-03-21T13:59:01;22.80;;;16.53;;
26040;SDS011;13816;53.628;9.950;2023-03-21T14:02:13;19.00;;;16.27;;
26040;SDS011;13816;53.628;9.950;2023-03-21T14:04:20;22.70;;;16.60;;
26040;SDS011;13816;53.628;9.950;2023-03-21T14:09:42;20.00;;;15.10;;
26040;SDS011;13816;53.628;9.950;2023-03-21T14:12:14;18.60;;;16.60;;
26040;SDS011;13816;53.628;9.950;2023-03-21T14:14:53;18.20;;;15.80;;
26040;SDS011;13816;53.628;9.950;2023-03-21T14:22:37;17.93;;;13.70;;
26040;SDS011;13816;53.628;9.950;2023-03-21T14:25:05;21.73;;;15.90;;
26040;SDS011;13816;53.628;9.950;2023-03-21T14:27:32;23.03;;;16.50;;
26040;SDS011;13816;53.628;9.950;2023-03-21T14:29:59;21.10;;;16.13;;
26040;SDS011;13816;53.628;9.950;2023-03-21T14:32:27;17.23;;;14.03;;
26040;SDS011;13816;53.628;9.950;2023-03-21T14:34:54;20.07;;;15.80;;
26040;SDS011;13816;53.628;9.950;2023-03-21T14:37:25;19.90;;;16.43;;
26040;SDS011;13816;53.628;9.950;2023-03-21T14:40:36;18.83;;;15.40;;
26040;SDS011;13816;53.628;9.950;2023-03-21T14:42:37;20.67;;;15.53;;
26040;SDS011;13816;53.628;9.950;2023-03-21T14:45:14;22.20;;;16.00;;
26040;SDS011;13816;53.628;9.950;2023-03-21T14:47:40;20.77;;;16.57;;
26040;SDS011;13816;53.628;9.950;2023-03-21T14:50:09;20.40;;;16.50;;
26040;SDS011;13816;53.628;9.950;2023-03-21T14:52:35;20.47;;;16.97;;
26040;SDS011;13816;53.628;9.950;2023-03-21T14:55:05;21.40;;;15.63;;
26040;SDS011;13816;53.628;9.950;2023-03-21T14:57:36;21.63;;;15.77;;
26040;SDS011;13816;53.628;9.950;2023-03-21T15:00:04;19.17;;;15.93;;
26040;SDS011;13816;53.628;9.950;2023-03-21T15:02:37;18.67;;;15.17;;
26040;SDS011;13816;53.628;9.950;2023-03-21T15:05:14;19.83;;;15.23;;
26040;SDS011;13816;53.628;9.950;2023-03-21T15:07:41;19.30;;;15.50;;
26040;SDS011;13816;53.628;9.950;2023-03-21T15:10:12;21.00;;;16.30;;
26040;SDS011;13816;53.628;9.950;2023-03-21T15:12:50;20.77;;;15.77;;
26040;SDS011;13816;53.628;9.950;2023-03-21T15:15:17;24.30;;;17.07;;
26040;SDS011;13816;53.628;9.950;2023-03-21T15:17:43;21.00;;;17.20;;
26040;SDS011;13816;53.628;9.950;2023-03-21T15:20:13;24.47;;;17.33;;
26040;SDS011;13816;53.628;9.950;2023-03-21T15:22:42;18.53;;;16.00;;
26040;SDS011;13816;53.628;9.950;2023-03-21T15:25:11;18.63;;;15.70;;
26040;SDS011;13816;53.628;9.950;2023-03-21T15:27:42;20.60;;;17.40;;
26040;SDS011;13816;53.628;9.950;2023-03-21T15:30:41;17.13;;;13.90;;
26040;SDS011;13816;53.628;9.950;2023-03-21T15:33:05;21.97;;;16.67;;
26040;SDS011;13816;53.628;9.950;2023-03-21T15:35:34;20.40;;;15.37;;
26040;SDS011;13816;53.628;9.950;2023-03-21T15:38:02;21.80;;;15.43;;
26040;SDS011;13816;53.628;9.950;2023-03-21T15:40:30;19.20;;;15.17;;
26040;SDS011;13816;53.628;9.950;2023-03-21T15:43:12;18.40;;;15.30;;
26040;SDS011;13816;53.628;9.950;2023-03-21T15:48:12;21.80;;;16.00;;
26040;SDS011;13816;53.628;9.950;2023-03-21T15:50:42;17.13;;;14.00;;
26040;SDS011;13816;53.628;9.950;2023-03-21T15:53:16;18.40;;;14.57;;
26040;SDS011;13816;53.628;9.950;2023-03-21T15:55:44;16.17;;;14.57;;
26040;SDS011;13816;53.628;9.950;2023-03-21T15:58:22;22.70;;;15.70;;
26040;SDS011;13816;53.628;9.950;2023-03-21T16:00:50;18.90;;;15.47;;
26040;SDS011;13816;53.628;9.950;2023-03-21T16:03:18;17.10;;;13.63;;
26040;SDS011;13816;53.628;9.950;2023-03-21T16:08:27;17.00;;;13.70;;
26040;SDS011;13816;53.628;9.950;2023-03-21T16:13:54;18.70;;;14.50;;
26040;SDS011;13816;53.628;9.950;2023-03-21T16:16:22;17.03;;;14.23;;
26040;SDS011;13816;53.628;9.950;2023-03-21T16:18:48;21.10;;;15.10;;
26040;SDS011;13816;53.628;9.950;2023-03-21T16:21:15;18.03;;;14.97;;
26040;SDS011;13816;53.628;9.950;2023-03-21T16:23:45;13.83;;;12.03;;
26040;SDS011;13816;53.628;9.950;2023-03-21T16:26:12;16.93;;;12.23;;
26040;SDS011;13816;53.628;9.950;2023-03-21T16:28:39;18.60;;;13.07;;
26040;SDS011;13816;53.628;9.950;2023-03-21T16:31:12;18.30;;;11.33;;
26040;SDS011;13816;53.628;9.950;2023-03-21T16:33:44;16.67;;;12.67;;